sensor_id;sensor_type;location;lat;lon;timestamp;P1;durP1;ratioP1;P2;durP2;ratioP2
48897;SDS011;34713;50.038;20.000;2022-08-25T00:01:07;8.98;;;4.65;;
48897;SDS011;34713;50.038;20.000;2022-08-25T00:03:41;12.78;;;5.17;;
48897;SDS011;34713;50.038;20.000;2022-08-25T00:06:08;9.63;;;4.50;;
48897;SDS011;34713;50.038;20.000;2022-08-25T00:08:35;12.65;;;4.40;;
48897;SDS011;34713;50.038;20.000;2022-08-25T00:11:06;15.28;;;4.47;;
48897;SDS011;34713;50.038;20.000;2022-08-25T00:13:45;14.43;;;4.75;;
48897;SDS011;34713;50.038;20.000;2022-08-25T00:16:16;20.72;;;5.58;;
48897;SDS011;34713;50.038;20.000;2022-08-25T00:18:43;18.00;;;4.87;;
48897;SDS011;34713;50.038;20.000;2022-08-25T00:21:12;14.40;;;4.78;;
48897;SDS011;34713;50.038;20.000;2022-08-25T00:23:40;13.93;;;5.35;;
48897;SDS011;34713;50.038;20.000;2022-08-25T00:26:07;11.95;;;4.62;;
48897;SDS011;34713;50.038;20.000;2022-08-25T00:28:34;14.25;;;4.20;;
48897;SDS011;34713;50.038;20.000;2022-08-25T00:31:00;13.03;;;5.03;;
48897;SDS011;34713;50.038;20.000;2022-08-25T00:33:27;14.73;;;4.67;;
48897;SDS011;34713;50.038;20.000;2022-08-25T00:35:55;13.68;;;4.65;;
48897;SDS011;34713;50.038;20.000;2022-08-25T00:38:22;13.95;;;4.72;;
48897;SDS011;34713;50.038;20.000;2022-08-25T00:40:48;13.00;;;4.92;;
48897;SDS011;34713;50.038;20.000;2022-08-25T00:43:16;13.83;;;4.92;;
48897;SDS011;34713;50.038;20.000;2022-08-25T00:45:42;14.95;;;5.03;;
48897;SDS011;34713;50.038;20.000;2022-08-25T00:48:08;14.40;;;5.03;;
48897;SDS011;34713;50.038;20.000;2022-08-25T00:50:34;14.47;;;5.05;;
48897;SDS011;34713;50.038;20.000;2022-08-25T00:53:02;13.45;;;5.40;;
48897;SDS011;34713;50.038;20.000;2022-08-25T00:55:30;13.90;;;4.90;;
48897;SDS011;34713;50.038;20.000;2022-08-25T01:00:36;24.30;;;5.55;;
48897;SDS011;34713;50.038;20.000;2022-08-25T01:03:05;13.05;;;5.12;;
48897;SDS011;34713;50.038;20.000;2022-08-25T01:05:31;16.70;;;4.90;;
48897;SDS011;34713;50.038;20.000;2022-08-25T01:07:59;12.65;;;4.70;;
48897;SDS011;34713;50.038;20.000;2022-08-25T01:10:30;15.65;;;5.42;;
48897;SDS011;34713;50.038;20.000;2022-08-25T01:12:59;17.40;;;5.50;;
48897;SDS011;34713;50.038;20.000;2022-08-25T01:15:30;11.28;;;4.25;;
48897;SDS011;34713;50.038;20.000;2022-08-25T01:17:58;13.22;;;5.47;;
48897;SDS011;34713;50.038;20.000;2022-08-25T01:20:27;14.65;;;5.15;;
48897;SDS011;34713;50.038;20.000;2022-08-25T01:22:55;14.63;;;5.47;;
48897;SDS011;34713;50.038;20.000;2022-08-25T01:28:25;11.43;;;5.33;;
48897;SDS011;34713;50.038;20.000;2022-08-25T01:30:50;12.82;;;4.62;;
48897;SDS011;34713;50.038;20.000;2022-08-25T01:33:17;14.07;;;5.47;;
48897;SDS011;34713;50.038;20.000;2022-08-25T01:35:43;18.25;;;4.95;;
48897;SDS011;34713;50.038;20.000;2022-08-25T01:38:10;13.65;;;4.70;;
48897;SDS011;34713;50.038;20.000;2022-08-25T01:40:36;14.15;;;5.20;;
48897;SDS011;34713;50.038;20.000;2022-08-25T01:45:47;12.82;;;4.70;;
48897;SDS011;34713;50.038;20.000;2022-08-25T01:48:14;16.27;;;5.45;;
48897;SDS011;34713;50.038;20.000;2022-08-25T01:50:41;14.25;;;5.60;;
48897;SDS011;34713;50.038;20.000;2022-08-25T01:55:48;13.90;;;5.33;;
48897;SDS011;34713;50.038;20.000;2022-08-25T01:58:18;13.03;;;5.05;;
48897;SDS011;34713;50.038;20.000;2022-08-25T02:00:54;16.35;;;5.22;;
48897;SDS011;34713;50.038;20.000;2022-08-25T02:03:22;17.90;;;5.15;;
48897;SDS011;34713;50.038;20.000;2022-08-25T02:05:50;16.85;;;5.25;;
48897;SDS011;34713;50.038;20.000;2022-08-25T02:08:17;14.43;;;5.72;;
48897;SDS011;34713;50.038;20.000;2022-08-25T02:10:44;13.15;;;5.47;;
48897;SDS011;34713;50.038;20.000;2022-08-25T02:13:11;15.13;;;5.17;;
48897;SDS011;34713;50.038;20.000;2022-08-25T02:15:43;13.55;;;5.00;;
48897;SDS011;34713;50.038;20.000;2022-08-25T02:18:14;14.47;;;5.65;;
48897;SDS011;34713;50.038;20.000;2022-08-25T02:20:40;16.42;;;5.30;;
48897;SDS011;34713;50.038;20.000;2022-08-25T02:23:06;12.90;;;4.80;;
48897;SDS011;34713;50.038;20.000;2022-08-25T02:25:33;11.48;;;4.87;;
48897;SDS011;34713;50.038;20.000;2022-08-25T02:27:59;12.58;;;4.40;;
48897;SDS011;34713;50.038;20.000;2022-08-25T02:30:25;16.77;;;5.00;;
48897;SDS011;34713;50.038;20.000;2022-08-25T02:32:51;18.70;;;5.45;;
48897;SDS011;34713;50.038;20.000;2022-08-25T02:35:17;11.70;;;4.33;;
48897;SDS011;34713;50.038;20.000;2022-08-25T02:37:44;11.73;;;4.72;;
48897;SDS011;34713;50.038;20.000;2022-08-25T02:40:10;16.42;;;5.42;;
48897;SDS011;34713;50.038;20.000;2022-08-25T02:42:36;18.20;;;4.72;;
48897;SDS011;34713;50.038;20.000;2022-08-25T02:45:03;13.53;;;5.03;;
48897;SDS011;34713;50.038;20.000;2022-08-25T02:47:31;14.00;;;5.47;;
48897;SDS011;34713;50.038;20.000;2022-08-25T02:49:57;12.33;;;5.65;;
48897;SDS011;34713;50.038;20.000;2022-08-25T02:52:23;13.28;;;5.15;;
48897;SDS011;34713;50.038;20.000;2022-08-25T02:54:49;15.43;;;5.15;;
48897;SDS011;34713;50.038;20.000;2022-08-25T02:57:15;16.85;;;5.22;;
48897;SDS011;34713;50.038;20.000;2022-08-25T02:59:42;9.38;;;4.22;;
48897;SDS011;34713;50.038;20.000;2022-08-25T03:02:10;10.65;;;5.00;;
48897;SDS011;34713;50.038;20.000;2022-08-25T03:04:36;13.32;;;5.30;;
48897;SDS011;34713;50.038;20.000;2022-08-25T03:07:01;13.65;;;5.37;;
48897;SDS011;34713;50.038;20.000;2022-08-25T03:09:27;14.10;;;5.72;;
48897;SDS011;34713;50.038;20.000;2022-08-25T03:11:53;16.85;;;5.97;;
48897;SDS011;34713;50.038;20.000;2022-08-25T03:14:19;16.32;;;5.42;;
48897;SDS011;34713;50.038;20.000;2022-08-25T03:16:44;11.65;;;5.10;;
48897;SDS011;34713;50.038;20.000;2022-08-25T03:19:10;19.42;;;5.80;;
48897;SDS011;34713;50.038;20.000;2022-08-25T03:21:36;19.00;;;5.50;;
48897;SDS011;34713;50.038;20.000;2022-08-25T03:24:03;13.70;;;4.60;;
48897;SDS011;34713;50.038;20.000;2022-08-25T03:26:30;12.15;;;4.60;;
48897;SDS011;34713;50.038;20.000;2022-08-25T03:29:14;11.63;;;4.97;;
48897;SDS011;34713;50.038;20.000;2022-08-25T03:31:41;13.53;;;5.25;;
48897;SDS011;34713;50.038;20.000;2022-08-25T03:34:09;12.03;;;5.30;;
48897;SDS011;34713;50.038;20.000;2022-08-25T03:36:38;11.03;;;5.05;;
48897;SDS011;34713;50.038;20.000;2022-08-25T03:39:04;13.45;;;4.92;;
48897;SDS011;34713;50.038;20.000;2022-08-25T03:41:32;15.30;;;4.92;;
48897;SDS011;34713;50.038;20.000;2022-08-25T03:43:59;12.93;;;5.00;;
48897;SDS011;34713;50.038;20.000;2022-08-25T03:46:33;13.05;;;5.30;;
48897;SDS011;34713;50.038;20.000;2022-08-25T03:51:32;14.40;;;4.90;;
48897;SDS011;34713;50.038;20.000;2022-08-25T03:54:01;12.70;;;4.70;;
48897;SDS011;34713;50.038;20.000;2022-08-25T03:56:28;17.73;;;6.10;;
48897;SDS011;34713;50.038;20.000;2022-08-25T03:58:54;15.10;;;5.15;;
48897;SDS011;34713;50.038;20.000;2022-08-25T04:01:20;14.80;;;5.12;;
48897;SDS011;34713;50.038;20.000;2022-08-25T04:03:47;17.62;;;5.62;;
48897;SDS011;34713;50.038;20.000;2022-08-25T04:06:14;14.00;;;5.10;;
48897;SDS011;34713;50.038;20.000;2022-08-25T04:08:42;13.13;;;5.53;;
48897;SDS011;34713;50.038;20.000;2022-08-25T04:11:09;9.70;;;4.40;;
48897;SDS011;34713;50.038;20.000;2022-08-25T04:13:39;13.30;;;5.30;;
48897;SDS011;34713;50.038;20.000;2022-08-25T04:16:11;14.18;;;4.90;;
48897;SDS011;34713;50.038;20.000;2022-08-25T04:18:43;15.13;;;5.40;;
48897;SDS011;34713;50.038;20.000;2022-08-25T04:21:10;16.30;;;6.37;;
48897;SDS011;34713;50.038;20.000;2022-08-25T04:23:41;17.07;;;6.78;;
48897;SDS011;34713;50.038;20.000;2022-08-25T04:26:17;14.15;;;5.80;;
48897;SDS011;34713;50.038;20.000;2022-08-25T04:28:46;12.37;;;5.42;;
48897;SDS011;34713;50.038;20.000;2022-08-25T04:31:12;17.30;;;6.47;;
48897;SDS011;34713;50.038;20.000;2022-08-25T04:33:40;15.00;;;5.72;;
48897;SDS011;34713;50.038;20.000;2022-08-25T04:36:06;15.50;;;5.12;;
48897;SDS011;34713;50.038;20.000;2022-08-25T04:38:36;16.52;;;5.67;;
48897;SDS011;34713;50.038;20.000;2022-08-25T04:41:05;15.72;;;5.10;;
48897;SDS011;34713;50.038;20.000;2022-08-25T04:43:33;17.73;;;4.78;;
48897;SDS011;34713;50.038;20.000;2022-08-25T04:46:10;13.65;;;4.80;;
48897;SDS011;34713;50.038;20.000;2022-08-25T04:48:35;15.28;;;5.15;;
48897;SDS011;34713;50.038;20.000;2022-08-25T04:51:08;16.90;;;5.33;;
48897;SDS011;34713;50.038;20.000;2022-08-25T04:53:38;14.85;;;5.60;;
48897;SDS011;34713;50.038;20.000;2022-08-25T04:56:05;18.40;;;5.62;;
48897;SDS011;34713;50.038;20.000;2022-08-25T04:58:34;15.32;;;5.72;;
48897;SDS011;34713;50.038;20.000;2022-08-25T05:01:02;16.80;;;6.30;;
48897;SDS011;34713;50.038;20.000;2022-08-25T05:03:30;14.07;;;5.75;;
48897;SDS011;34713;50.038;20.000;2022-08-25T05:05:56;12.30;;;5.30;;
48897;SDS011;34713;50.038;20.000;2022-08-25T05:08:23;17.85;;;6.67;;
48897;SDS011;34713;50.038;20.000;2022-08-25T05:10:49;18.73;;;6.72;;
48897;SDS011;34713;50.038;20.000;2022-08-25T05:13:15;17.67;;;5.87;;
48897;SDS011;34713;50.038;20.000;2022-08-25T05:15:41;18.10;;;5.90;;
48897;SDS011;34713;50.038;20.000;2022-08-25T05:18:16;15.90;;;6.00;;
48897;SDS011;34713;50.038;20.000;2022-08-25T05:20:43;17.98;;;5.22;;
48897;SDS011;34713;50.038;20.000;2022-08-25T05:23:09;21.48;;;6.08;;
48897;SDS011;34713;50.038;20.000;2022-08-25T05:25:35;17.30;;;6.17;;
48897;SDS011;34713;50.038;20.000;2022-08-25T05:28:01;15.45;;;5.83;;
48897;SDS011;34713;50.038;20.000;2022-08-25T05:30:28;14.78;;;5.17;;
48897;SDS011;34713;50.038;20.000;2022-08-25T05:32:54;12.50;;;4.75;;
48897;SDS011;34713;50.038;20.000;2022-08-25T05:35:19;19.32;;;5.83;;
48897;SDS011;34713;50.038;20.000;2022-08-25T05:37:46;17.20;;;5.87;;
48897;SDS011;34713;50.038;20.000;2022-08-25T05:40:12;15.83;;;5.75;;
48897;SDS011;34713;50.038;20.000;2022-08-25T05:42:38;18.40;;;5.55;;
48897;SDS011;34713;50.038;20.000;2022-08-25T05:45:05;19.77;;;6.15;;
48897;SDS011;34713;50.038;20.000;2022-08-25T05:47:32;9.58;;;4.58;;
48897;SDS011;34713;50.038;20.000;2022-08-25T05:49:58;17.27;;;4.75;;
48897;SDS011;34713;50.038;20.000;2022-08-25T05:52:25;17.30;;;5.20;;
48897;SDS011;34713;50.038;20.000;2022-08-25T05:54:52;19.07;;;5.35;;
48897;SDS011;34713;50.038;20.000;2022-08-25T05:57:18;16.07;;;4.53;;
48897;SDS011;34713;50.038;20.000;2022-08-25T05:59:44;15.80;;;4.50;;
48897;SDS011;34713;50.038;20.000;2022-08-25T06:02:10;18.60;;;4.62;;
48897;SDS011;34713;50.038;20.000;2022-08-25T06:04:54;18.30;;;5.30;;
48897;SDS011;34713;50.038;20.000;2022-08-25T06:07:19;13.85;;;4.60;;
48897;SDS011;34713;50.038;20.000;2022-08-25T06:09:45;17.98;;;4.55;;
48897;SDS011;34713;50.038;20.000;2022-08-25T06:12:13;17.23;;;4.78;;
48897;SDS011;34713;50.038;20.000;2022-08-25T06:14:39;14.98;;;4.90;;
48897;SDS011;34713;50.038;20.000;2022-08-25T06:17:05;15.58;;;5.12;;
48897;SDS011;34713;50.038;20.000;2022-08-25T06:19:31;14.05;;;4.40;;
48897;SDS011;34713;50.038;20.000;2022-08-25T06:21:57;16.35;;;4.80;;
48897;SDS011;34713;50.038;20.000;2022-08-25T06:24:24;22.40;;;4.42;;
48897;SDS011;34713;50.038;20.000;2022-08-25T06:26:52;15.32;;;4.25;;
48897;SDS011;34713;50.038;20.000;2022-08-25T06:29:18;14.65;;;4.53;;
48897;SDS011;34713;50.038;20.000;2022-08-25T06:31:45;14.53;;;4.70;;
48897;SDS011;34713;50.038;20.000;2022-08-25T06:34:11;12.15;;;4.47;;
48897;SDS011;34713;50.038;20.000;2022-08-25T06:36:38;14.80;;;4.55;;
48897;SDS011;34713;50.038;20.000;2022-08-25T06:39:04;16.40;;;4.78;;
48897;SDS011;34713;50.038;20.000;2022-08-25T06:41:30;18.32;;;4.62;;
48897;SDS011;34713;50.038;20.000;2022-08-25T06:43:57;24.72;;;5.58;;
48897;SDS011;34713;50.038;20.000;2022-08-25T06:46:24;25.35;;;4.60;;
48897;SDS011;34713;50.038;20.000;2022-08-25T06:48:52;17.82;;;4.22;;
48897;SDS011;34713;50.038;20.000;2022-08-25T06:51:19;20.32;;;4.72;;
48897;SDS011;34713;50.038;20.000;2022-08-25T06:53:47;15.63;;;5.10;;
48897;SDS011;34713;50.038;20.000;2022-08-25T06:56:14;21.40;;;4.35;;
48897;SDS011;34713;50.038;20.000;2022-08-25T06:58:42;21.33;;;4.60;;
48897;SDS011;34713;50.038;20.000;2022-08-25T07:01:12;21.82;;;4.40;;
48897;SDS011;34713;50.038;20.000;2022-08-25T07:03:46;14.87;;;4.50;;
48897;SDS011;34713;50.038;20.000;2022-08-25T07:06:16;21.70;;;4.30;;
48897;SDS011;34713;50.038;20.000;2022-08-25T07:08:43;22.87;;;6.00;;
48897;SDS011;34713;50.038;20.000;2022-08-25T07:11:10;17.20;;;5.87;;
48897;SDS011;34713;50.038;20.000;2022-08-25T07:13:37;23.60;;;5.20;;
48897;SDS011;34713;50.038;20.000;2022-08-25T07:16:03;23.60;;;6.08;;
48897;SDS011;34713;50.038;20.000;2022-08-25T07:18:31;25.02;;;6.65;;
48897;SDS011;34713;50.038;20.000;2022-08-25T07:20:57;29.32;;;6.47;;
48897;SDS011;34713;50.038;20.000;2022-08-25T07:23:24;23.52;;;5.85;;
48897;SDS011;34713;50.038;20.000;2022-08-25T07:25:52;24.27;;;6.65;;
48897;SDS011;34713;50.038;20.000;2022-08-25T07:28:19;26.35;;;7.60;;
48897;SDS011;34713;50.038;20.000;2022-08-25T07:30:46;25.30;;;7.42;;
48897;SDS011;34713;50.038;20.000;2022-08-25T07:33:15;19.07;;;6.90;;
48897;SDS011;34713;50.038;20.000;2022-08-25T07:35:40;30.02;;;8.18;;
48897;SDS011;34713;50.038;20.000;2022-08-25T07:38:06;27.13;;;6.75;;
48897;SDS011;34713;50.038;20.000;2022-08-25T07:40:34;28.67;;;8.15;;
48897;SDS011;34713;50.038;20.000;2022-08-25T07:43:03;27.42;;;8.15;;
48897;SDS011;34713;50.038;20.000;2022-08-25T07:45:35;30.57;;;8.08;;
48897;SDS011;34713;50.038;20.000;2022-08-25T07:48:08;24.32;;;6.72;;
48897;SDS011;34713;50.038;20.000;2022-08-25T07:50:36;28.45;;;7.62;;
48897;SDS011;34713;50.038;20.000;2022-08-25T07:53:10;28.40;;;8.55;;
48897;SDS011;34713;50.038;20.000;2022-08-25T07:55:37;25.12;;;8.13;;
48897;SDS011;34713;50.038;20.000;2022-08-25T07:58:04;25.60;;;7.08;;
48897;SDS011;34713;50.038;20.000;2022-08-25T08:00:31;27.30;;;6.97;;
48897;SDS011;34713;50.038;20.000;2022-08-25T08:03:04;22.87;;;7.53;;
48897;SDS011;34713;50.038;20.000;2022-08-25T08:05:31;38.45;;;9.20;;
48897;SDS011;34713;50.038;20.000;2022-08-25T08:07:57;22.05;;;7.45;;
48897;SDS011;34713;50.038;20.000;2022-08-25T08:10:23;24.25;;;7.95;;
48897;SDS011;34713;50.038;20.000;2022-08-25T08:12:50;26.77;;;7.67;;
48897;SDS011;34713;50.038;20.000;2022-08-25T08:15:16;18.27;;;6.78;;
48897;SDS011;34713;50.038;20.000;2022-08-25T08:17:43;27.32;;;8.63;;
48897;SDS011;34713;50.038;20.000;2022-08-25T08:20:10;27.90;;;7.87;;
48897;SDS011;34713;50.038;20.000;2022-08-25T08:22:37;24.12;;;7.53;;
48897;SDS011;34713;50.038;20.000;2022-08-25T08:25:06;30.82;;;7.25;;
48897;SDS011;34713;50.038;20.000;2022-08-25T08:27:34;30.85;;;8.35;;
48897;SDS011;34713;50.038;20.000;2022-08-25T08:30:00;29.50;;;8.55;;
48897;SDS011;34713;50.038;20.000;2022-08-25T08:32:29;39.48;;;8.98;;
48897;SDS011;34713;50.038;20.000;2022-08-25T08:34:55;44.23;;;9.98;;
48897;SDS011;34713;50.038;20.000;2022-08-25T08:37:22;39.27;;;8.20;;
48897;SDS011;34713;50.038;20.000;2022-08-25T08:39:48;34.80;;;8.88;;
48897;SDS011;34713;50.038;20.000;2022-08-25T08:42:21;37.73;;;10.78;;
48897;SDS011;34713;50.038;20.000;2022-08-25T08:45:10;30.43;;;9.03;;
48897;SDS011;34713;50.038;20.000;2022-08-25T08:47:59;29.72;;;10.38;;
48897;SDS011;34713;50.038;20.000;2022-08-25T08:56:43;28.50;;;8.98;;
48897;SDS011;34713;50.038;20.000;2022-08-25T08:59:14;32.50;;;9.03;;
48897;SDS011;34713;50.038;20.000;2022-08-25T09:01:50;24.80;;;7.72;;
48897;SDS011;34713;50.038;20.000;2022-08-25T09:07:16;27.10;;;7.58;;
48897;SDS011;34713;50.038;20.000;2022-08-25T09:15:09;28.80;;;7.25;;
48897;SDS011;34713;50.038;20.000;2022-08-25T09:20:35;26.73;;;8.13;;
48897;SDS011;34713;50.038;20.000;2022-08-25T09:28:54;42.17;;;7.65;;
48897;SDS011;34713;50.038;20.000;2022-08-25T09:31:34;29.40;;;7.33;;
48897;SDS011;34713;50.038;20.000;2022-08-25T09:34:01;25.35;;;8.15;;
48897;SDS011;34713;50.038;20.000;2022-08-25T09:36:32;27.77;;;7.72;;
48897;SDS011;34713;50.038;20.000;2022-08-25T09:38:59;26.65;;;7.80;;
48897;SDS011;34713;50.038;20.000;2022-08-25T09:41:39;32.45;;;7.12;;
48897;SDS011;34713;50.038;20.000;2022-08-25T09:46:55;34.70;;;6.92;;
48897;SDS011;34713;50.038;20.000;2022-08-25T09:49:42;30.43;;;7.75;;
48897;SDS011;34713;50.038;20.000;2022-08-25T09:52:19;24.50;;;6.28;;
48897;SDS011;34713;50.038;20.000;2022-08-25T09:55:00;34.80;;;6.90;;
48897;SDS011;34713;50.038;20.000;2022-08-25T09:57:48;34.88;;;8.38;;
48897;SDS011;34713;50.038;20.000;2022-08-25T10:00:31;30.97;;;8.40;;
48897;SDS011;34713;50.038;20.000;2022-08-25T10:03:21;30.65;;;8.23;;
48897;SDS011;34713;50.038;20.000;2022-08-25T10:05:30;35.80;;;8.10;;
48897;SDS011;34713;50.038;20.000;2022-08-25T10:10:45;29.27;;;8.13;;
48897;SDS011;34713;50.038;20.000;2022-08-25T10:13:19;32.38;;;8.18;;
48897;SDS011;34713;50.038;20.000;2022-08-25T10:15:46;29.57;;;8.80;;
48897;SDS011;34713;50.038;20.000;2022-08-25T10:21:05;25.25;;;7.25;;
48897;SDS011;34713;50.038;20.000;2022-08-25T10:23:42;34.92;;;8.08;;
48897;SDS011;34713;50.038;20.000;2022-08-25T10:26:14;32.42;;;7.80;;
48897;SDS011;34713;50.038;20.000;2022-08-25T10:45:30;29.37;;;7.47;;
48897;SDS011;34713;50.038;20.000;2022-08-25T10:48:16;26.68;;;7.22;;
48897;SDS011;34713;50.038;20.000;2022-08-25T10:57:19;33.90;;;7.58;;
48897;SDS011;34713;50.038;20.000;2022-08-25T10:59:50;24.98;;;6.75;;
48897;SDS011;34713;50.038;20.000;2022-08-25T11:08:26;28.20;;;7.78;;
48897;SDS011;34713;50.038;20.000;2022-08-25T11:11:04;31.35;;;6.95;;
48897;SDS011;34713;50.038;20.000;2022-08-25T11:17:06;33.20;;;7.22;;
48897;SDS011;34713;50.038;20.000;2022-08-25T11:19:18;32.60;;;7.35;;
48897;SDS011;34713;50.038;20.000;2022-08-25T11:27:23;25.95;;;6.85;;
48897;SDS011;34713;50.038;20.000;2022-08-25T11:30:11;31.68;;;6.30;;
48897;SDS011;34713;50.038;20.000;2022-08-25T11:32:39;25.80;;;5.65;;
48897;SDS011;34713;50.038;20.000;2022-08-25T11:35:11;31.23;;;6.50;;
48897;SDS011;34713;50.038;20.000;2022-08-25T11:37:43;33.75;;;7.05;;
48897;SDS011;34713;50.038;20.000;2022-08-25T11:52:02;29.75;;;5.92;;
48897;SDS011;34713;50.038;20.000;2022-08-25T11:54:34;29.80;;;5.17;;
48897;SDS011;34713;50.038;20.000;2022-08-25T11:57:05;23.22;;;5.53;;
48897;SDS011;34713;50.038;20.000;2022-08-25T12:05:09;26.15;;;5.53;;
48897;SDS011;34713;50.038;20.000;2022-08-25T12:08:04;31.57;;;6.80;;
48897;SDS011;34713;50.038;20.000;2022-08-25T12:13:44;26.50;;;5.92;;
48897;SDS011;34713;50.038;20.000;2022-08-25T12:38:16;25.85;;;5.42;;
48897;SDS011;34713;50.038;20.000;2022-08-25T12:43:39;31.12;;;6.67;;
48897;SDS011;34713;50.038;20.000;2022-08-25T12:48:54;29.23;;;6.05;;
48897;SDS011;34713;50.038;20.000;2022-08-25T12:57:04;30.75;;;5.72;;
48897;SDS011;34713;50.038;20.000;2022-08-25T12:59:53;29.00;;;6.20;;
48897;SDS011;34713;50.038;20.000;2022-08-25T13:02:29;31.65;;;5.70;;
48897;SDS011;34713;50.038;20.000;2022-08-25T13:16:57;28.90;;;5.42;;
48897;SDS011;34713;50.038;20.000;2022-08-25T13:19:24;32.00;;;7.15;;
48897;SDS011;34713;50.038;20.000;2022-08-25T13:21:51;23.77;;;5.28;;
48897;SDS011;34713;50.038;20.000;2022-08-25T13:24:21;26.40;;;6.22;;
48897;SDS011;34713;50.038;20.000;2022-08-25T13:26:52;29.52;;;7.45;;
48897;SDS011;34713;50.038;20.000;2022-08-25T13:29:21;23.40;;;5.10;;
48897;SDS011;34713;50.038;20.000;2022-08-25T13:34:29;33.13;;;6.72;;
48897;SDS011;34713;50.038;20.000;2022-08-25T13:37:08;25.60;;;5.17;;
48897;SDS011;34713;50.038;20.000;2022-08-25T13:40:09;26.12;;;5.58;;
48897;SDS011;34713;50.038;20.000;2022-08-25T13:42:52;25.68;;;5.15;;
48897;SDS011;34713;50.038;20.000;2022-08-25T13:45:31;21.70;;;5.30;;
48897;SDS011;34713;50.038;20.000;2022-08-25T13:48:01;24.95;;;5.15;;
48897;SDS011;34713;50.038;20.000;2022-08-25T13:53:04;29.57;;;5.95;;
48897;SDS011;34713;50.038;20.000;2022-08-25T13:55:50;29.57;;;6.25;;
48897;SDS011;34713;50.038;20.000;2022-08-25T13:58:24;27.25;;;5.53;;
48897;SDS011;34713;50.038;20.000;2022-08-25T14:01:42;24.52;;;5.28;;
48897;SDS011;34713;50.038;20.000;2022-08-25T14:03:41;20.45;;;5.03;;
48897;SDS011;34713;50.038;20.000;2022-08-25T14:09:03;26.65;;;6.20;;
48897;SDS011;34713;50.038;20.000;2022-08-25T14:11:28;31.97;;;5.20;;
48897;SDS011;34713;50.038;20.000;2022-08-25T14:14:04;24.93;;;6.57;;
48897;SDS011;34713;50.038;20.000;2022-08-25T14:19:03;27.82;;;5.37;;
48897;SDS011;34713;50.038;20.000;2022-08-25T14:21:29;35.98;;;7.12;;
48897;SDS011;34713;50.038;20.000;2022-08-25T14:23:57;25.97;;;5.12;;
48897;SDS011;34713;50.038;20.000;2022-08-25T14:26:24;31.25;;;5.87;;
48897;SDS011;34713;50.038;20.000;2022-08-25T14:28:51;26.62;;;6.10;;
48897;SDS011;34713;50.038;20.000;2022-08-25T14:38:55;24.18;;;5.47;;
48897;SDS011;34713;50.038;20.000;2022-08-25T14:41:22;31.70;;;5.75;;
48897;SDS011;34713;50.038;20.000;2022-08-25T14:43:49;24.12;;;5.58;;
48897;SDS011;34713;50.038;20.000;2022-08-25T14:46:17;31.97;;;6.17;;
48897;SDS011;34713;50.038;20.000;2022-08-25T14:51:19;33.58;;;7.17;;
48897;SDS011;34713;50.038;20.000;2022-08-25T14:53:45;30.17;;;7.05;;
48897;SDS011;34713;50.038;20.000;2022-08-25T14:56:12;27.62;;;6.17;;
48897;SDS011;34713;50.038;20.000;2022-08-25T14:58:38;29.95;;;6.70;;
48897;SDS011;34713;50.038;20.000;2022-08-25T15:01:05;34.53;;;6.40;;
48897;SDS011;34713;50.038;20.000;2022-08-25T15:03:33;29.05;;;5.90;;
48897;SDS011;34713;50.038;20.000;2022-08-25T15:06:02;26.12;;;6.40;;
48897;SDS011;34713;50.038;20.000;2022-08-25T15:08:30;28.42;;;7.05;;
48897;SDS011;34713;50.038;20.000;2022-08-25T15:11:15;26.48;;;6.28;;
48897;SDS011;34713;50.038;20.000;2022-08-25T15:13:41;33.48;;;8.38;;
48897;SDS011;34713;50.038;20.000;2022-08-25T15:16:09;28.50;;;6.40;;
48897;SDS011;34713;50.038;20.000;2022-08-25T15:18:40;29.50;;;6.20;;
48897;SDS011;34713;50.038;20.000;2022-08-25T15:21:08;29.82;;;5.55;;
48897;SDS011;34713;50.038;20.000;2022-08-25T15:23:34;35.03;;;5.53;;
48897;SDS011;34713;50.038;20.000;2022-08-25T15:25:59;27.02;;;6.55;;
48897;SDS011;34713;50.038;20.000;2022-08-25T15:28:25;28.00;;;7.08;;
48897;SDS011;34713;50.038;20.000;2022-08-25T15:30:54;34.03;;;6.25;;
48897;SDS011;34713;50.038;20.000;2022-08-25T15:33:20;29.48;;;7.30;;
48897;SDS011;34713;50.038;20.000;2022-08-25T15:35:47;28.02;;;5.47;;
48897;SDS011;34713;50.038;20.000;2022-08-25T15:38:13;27.87;;;5.70;;
48897;SDS011;34713;50.038;20.000;2022-08-25T15:40:38;25.88;;;6.00;;
48897;SDS011;34713;50.038;20.000;2022-08-25T15:43:04;29.67;;;6.53;;
48897;SDS011;34713;50.038;20.000;2022-08-25T15:45:31;25.23;;;5.95;;
48897;SDS011;34713;50.038;20.000;2022-08-25T15:47:57;32.60;;;6.03;;
48897;SDS011;34713;50.038;20.000;2022-08-25T15:50:24;30.60;;;7.42;;
48897;SDS011;34713;50.038;20.000;2022-08-25T15:52:51;30.05;;;6.25;;
48897;SDS011;34713;50.038;20.000;2022-08-25T15:55:16;23.27;;;5.40;;
48897;SDS011;34713;50.038;20.000;2022-08-25T15:57:43;29.02;;;6.67;;
48897;SDS011;34713;50.038;20.000;2022-08-25T16:00:09;22.55;;;5.65;;
48897;SDS011;34713;50.038;20.000;2022-08-25T16:02:37;26.50;;;6.42;;
48897;SDS011;34713;50.038;20.000;2022-08-25T16:05:04;28.75;;;6.28;;
48897;SDS011;34713;50.038;20.000;2022-08-25T16:07:32;28.77;;;6.28;;
48897;SDS011;34713;50.038;20.000;2022-08-25T16:09:58;25.72;;;6.65;;
48897;SDS011;34713;50.038;20.000;2022-08-25T16:12:24;24.30;;;5.47;;
48897;SDS011;34713;50.038;20.000;2022-08-25T16:14:51;28.47;;;5.67;;
48897;SDS011;34713;50.038;20.000;2022-08-25T16:17:20;21.62;;;6.00;;
48897;SDS011;34713;50.038;20.000;2022-08-25T16:19:47;21.25;;;5.47;;
48897;SDS011;34713;50.038;20.000;2022-08-25T16:22:13;37.98;;;6.40;;
48897;SDS011;34713;50.038;20.000;2022-08-25T16:24:39;29.60;;;6.45;;
48897;SDS011;34713;50.038;20.000;2022-08-25T16:27:09;28.10;;;6.90;;
48897;SDS011;34713;50.038;20.000;2022-08-25T16:29:36;25.70;;;6.25;;
48897;SDS011;34713;50.038;20.000;2022-08-25T16:32:05;27.58;;;6.47;;
48897;SDS011;34713;50.038;20.000;2022-08-25T16:34:32;20.05;;;6.03;;
48897;SDS011;34713;50.038;20.000;2022-08-25T16:36:59;27.85;;;6.53;;
48897;SDS011;34713;50.038;20.000;2022-08-25T16:39:26;24.20;;;6.00;;
48897;SDS011;34713;50.038;20.000;2022-08-25T16:41:52;22.42;;;5.58;;
48897;SDS011;34713;50.038;20.000;2022-08-25T16:44:18;23.50;;;5.83;;
48897;SDS011;34713;50.038;20.000;2022-08-25T16:46:45;18.40;;;5.12;;
48897;SDS011;34713;50.038;20.000;2022-08-25T16:49:12;26.65;;;6.53;;
48897;SDS011;34713;50.038;20.000;2022-08-25T16:51:40;22.58;;;6.05;;
48897;SDS011;34713;50.038;20.000;2022-08-25T16:54:07;24.37;;;6.08;;
48897;SDS011;34713;50.038;20.000;2022-08-25T16:56:53;25.45;;;5.92;;
48897;SDS011;34713;50.038;20.000;2022-08-25T16:59:20;19.45;;;5.35;;
48897;SDS011;34713;50.038;20.000;2022-08-25T17:01:46;27.85;;;6.35;;
48897;SDS011;34713;50.038;20.000;2022-08-25T17:04:12;22.50;;;5.90;;
48897;SDS011;34713;50.038;20.000;2022-08-25T17:06:39;20.77;;;5.42;;
48897;SDS011;34713;50.038;20.000;2022-08-25T17:09:08;21.00;;;5.95;;
48897;SDS011;34713;50.038;20.000;2022-08-25T17:11:44;19.82;;;5.53;;
48897;SDS011;34713;50.038;20.000;2022-08-25T17:14:11;24.37;;;5.87;;
48897;SDS011;34713;50.038;20.000;2022-08-25T17:16:40;22.07;;;6.40;;
48897;SDS011;34713;50.038;20.000;2022-08-25T17:19:07;19.67;;;5.85;;
48897;SDS011;34713;50.038;20.000;2022-08-25T17:21:37;22.62;;;5.90;;